Terminal Aerodrome Forecast
Issued by NWS Upton, NY

Home | Current Version | Previous Version | Text Only | Print | Product List | Glossary On
Versions: 1 2 3 4 5 6 7 8 9 10 11 12 13 14 15 16 17 18 19 20 21 22 23 24 25 26 27 28 29 30 31 32 33 34 35
883
FTUS41 KOKX 280235 AAA
TAFISP
TAF AMD
KISP 280235Z 2803/2824 VRB03KT 3/4SM BR OVC002
     FM280400 VRB03KT 1/4SM FG OVC002
     FM281000 VRB03KT 1/2SM FG OVC004
      TEMPO 2810/2814 1SM -RA BR OVC004
     FM281500 07006KT 2SM BR OVC006
     FM281800 06007KT 4SM BR OVC008=

USA.gov is the U.S. government's official web portal to all federal, state and local government web resources and services.